Terminal Aerodrome Forecast
Issued by NWS Twin Cities, MN

Home | Current Version | Previous Version | Graphics & Text | Print | Product List | Glossary On
Versions: 1 2 3 4 5 6 7 8 9 10 11 12 13 14 15 16 17 18 19 20 21 22 23 24 25 26
310
FTUS43 KMPX 210520
TAFMSP
TAF
KMSP 210520Z 2106/2212 13007KT 2SM BR OVC003
     FM210800 10005KT 1SM -DZ BR OVC002
     FM211300 07006KT 2SM -RA BR OVC003
     FM212100 10003KT 3SM -DZ BR OVC004
     FM220300 32004KT 4SM BR OVC005=

USA.gov is the U.S. government's official web portal to all federal, state and local government web resources and services.